Flight Track Log - Related Links

Times and Time Zones

All times are in EDT time to prevent confusion due to time zone crossing. See the JUS196 flight status page for this flight to view local times or setup timezone preferences in your user account.

Time Position Orientation Groundspeed Altitude Reporting Facility
EDT Latitude Longitude Course Direction KTS MPH feet Rate Location/Type
Wed 07:10:25 AM 26.1789 -99.8364 33° Northeast 473 544 27,100  Level Houston Center
Wed 07:11:26 AM 26.2806 -99.7636 33° Northeast 452 520 24,000 -3,098 Descending Houston Center
Wed 07:12:27 AM 26.3806 -99.6969 31° Northeast 434 499 20,800 -2,975 Descending Houston Center
Wed 07:13:27 AM 26.4767 -99.6328 31° Northeast 417 480 18,000 -2,826 Descending Houston Center
Wed 07:14:28 AM 26.5719 -99.5989 18° North 389 448 15,100 -2,705 Descending Houston Center
Wed 07:15:29 AM 26.6686 -99.5958 North 368 423 12,500 -2,083 Descending Houston Center
Wed 07:16:29 AM 26.7592 -99.5875 North 345 397 10,900 -1,488 Descending Houston Center
Wed 07:17:30 AM 26.8439 -99.5869 360° North 323 372 9,500 -1,033 Descending Houston Center
Wed 07:18:31 AM 26.9161 -99.5528 23° Northeast 260 299 8,800 -885 Descending Houston Center
Wed 07:19:32 AM 26.9650 -99.5311 22° Northeast 216 249 7,700 -1,082 Descending Houston Center
Wed 07:20:33 AM 27.0128 -99.5083 23° Northeast 197 227 6,600 -1,140 Descending Houston Center
Wed 07:21:33 AM 27.0597 -99.4903 19° North 187 215 5,400 -1,091 Descending Houston Center
Wed 07:22:34 AM 27.1042 -99.4781 14° North 175 201 4,400 -689 Descending Houston Center
Wed 07:23:35 AM 27.1503 -99.4842 353° North 167 192 4,000 -197 Descending Houston Center
Wed 07:24:36 AM 27.1950 -99.4803 North 165 190 4,000  Level Houston Center
Wed 07:25:37 AM 27.2408 -99.4794 North 164 189 4,000  Level Houston Center
Wed 07:26:38 AM 27.2842 -99.4731 North 160 184 4,000 -148 Level Houston Center
Wed 07:27:39 AM 27.3328 -99.4753 358° North 166 191 3,700 -689 Descending Houston Center
Wed 07:28:40 AM 27.3714 -99.4733 North 155 178 2,600 -590 Descending Houston Center
Wed 07:29:41 AM 27.4008 -99.4714 North 132 152 2,500 -98 Descending Houston Center
Wed 07:30:42 AM 27.4294 -99.4683 North 114 131 2,400 -393 Descending Houston Center
Wed 07:31:43 AM 27.4581 -99.4678 North 107 123 1,700 -590 Descending Houston Center
Wed 07:32:44 AM 27.4906 -99.4656 North 102 117 1,200 -443 Descending Houston Center
Wed 07:33:45 AM 27.5189 -99.4633 North 100 115 800 -344 Descending Houston Center
Wed 07:34:46 AM 27.5425 -99.4636 359° North 102 117 500 -295 Descending Houston Center

Login

Don't have an account? Register now (free) for customized features, flight alerts, and more!